CDT,Max TemperatureF,Mean TemperatureF,Min TemperatureF,Max Dew PointF,MeanDew PointF,Min DewpointF,Max Humidity, Mean Humidity, Min Humidity, Max Sea Level PressureIn, Mean Sea Level PressureIn, Min Sea Level PressureIn, Max VisibilityMiles, Mean VisibilityMiles, Min VisibilityMiles, Max Wind SpeedMPH, Mean Wind SpeedMPH, Max Gust SpeedMPH,PrecipitationIn, CloudCover, Events, WindDirDegrees
2012-10-1,69,60,50,50,45,41,77,60,40,29.93,29.88,29.83,10,10,8,10,4,13,0.00,3,,311
2012-10-2,69,60,50,50,49,48,94,71,46,29.95,29.90,29.86,10,10,8,9,5,13,0.00,3,,39
2012-10-3,75,62,48,48,45,43,93,59,31,29.96,29.93,29.88,10,10,7,10,4,15,0.00,3,,159
2012-10-4,59,50,41,48,38,28,77,59,41,30.17,30.03,29.90,10,10,9,18,9,28,0.00,2,Rain,266
2012-10-5,48,40,33,30,25,18,81,56,30,30.17,30.14,30.09,10,10,10,20,7,31,0.00,1,Rain,292
2012-10-6,41,36,32,28,24,21,80,57,49,30.22,30.18,30.11,10,10,10,18,10,26,0.00,7,Rain,319
2012-10-7,50,39,28,23,19,14,75,45,25,30.22,30.13,30.01,10,10,10,12,4,18,0.00,3,,221
2012-10-8,64,50,37,32,28,18,65,44,28,30.00,29.86,29.74,10,10,10,22,12,37,0.00,3,,199
2012-10-9,55,47,39,46,36,27,93,69,41,29.96,29.84,29.77,10,9,3,15,8,23,0.19,7,Rain,256
2012-10-10,50,40,30,28,26,23,80,57,35,30.13,30.06,29.96,10,10,10,15,7,26,0.00,3,,264
2012-10-11,53,46,37,37,28,18,66,49,34,30.34,30.08,29.93,10,10,9,20,11,31,0.00,3,Rain,292
2012-10-12,51,38,26,30,20,16,86,48,24,30.45,30.34,30.14,10,10,8,12,5,18,0.02,1,Rain,121
2012-10-13,64,53,42,63,53,39,100,92,81,30.09,29.82,29.66,10,7,1,14,9,23,0.25,8,Rain,182
2012-10-14,64,52,41,63,49,36,100,91,76,29.86,29.68,29.55,10,7,2,23,7,29,1.13,7,Rain,326
2012-10-15,60,50,39,43,39,36,100,70,42,29.96,29.90,29.86,10,10,9,9,3,14,0.00,2,,227
2012-10-16,68,57,46,52,46,41,82,68,52,29.85,29.58,29.41,10,10,9,16,9,26,0.00,1,,162
2012-10-17,62,55,48,52,47,39,88,75,51,29.41,29.34,29.30,10,10,6,16,8,26,0.00,5,,217
2012-10-18,48,45,42,43,41,37,100,88,71,29.36,29.28,29.24,10,9,3,12,6,18,0.03,8,Rain,245
2012-10-19,48,44,39,45,40,37,100,90,76,29.71,29.56,29.38,10,8,0,10,3,14,0.03,6,Fog-Rain,342
2012-10-20,51,42,32,43,38,32,100,87,62,29.88,29.80,29.71,10,7,0,7,2,,0.00,3,Fog,206
2012-10-21,68,54,41,50,45,39,93,74,46,29.90,29.87,29.83,10,10,8,18,8,23,0.00,1,,151
2012-10-22,60,58,55,59,56,50,100,92,77,29.89,29.87,29.84,10,6,0,14,6,15,0.51,8,Fog-Rain,105
2012-10-23,71,65,59,66,61,57,100,89,69,29.86,29.80,29.73,10,5,0,15,10,21,0.00,8,Fog,149
2012-10-24,73,68,64,66,64,63,100,87,73,29.83,29.76,29.66,10,8,4,13,7,16,0.00,8,,166
2012-10-25,69,53,35,64,43,27,100,85,65,30.17,29.79,29.56,10,9,2,29,10,45,0.43,8,Rain,313
2012-10-26,41,36,30,28,25,23,81,65,52,30.37,30.31,30.17,10,10,10,17,7,24,0.00,4,,305
2012-10-27,41,36,30,28,23,16,93,63,39,30.37,30.33,30.29,10,10,4,9,1,15,0.00,3,,343
2012-10-28,46,35,24,28,21,16,93,61,31,30.36,30.32,30.28,10,10,7,7,1,14,0.00,0,,128
2012-10-29,48,36,24,28,22,18,86,57,30,30.34,30.29,30.20,10,10,10,9,2,12,0.00,3,,107
2012-10-30,48,38,28,28,23,19,80,57,32,30.20,30.06,29.96,10,10,10,18,7,25,0.00,0,,351
2012-10-31,50,38,26,23,18,12,80,51,22,29.99,29.95,29.91,10,10,10,16,11,21,0.00,1,,327